sensor_id;sensor_type;location;lat;lon;timestamp;P1;durP1;ratioP1;P2;durP2;ratioP2
39948;SDS011;29070;48.102;-1.652;2023-06-22T00:01:20;8.13;;;2.83;;
39948;SDS011;29070;48.102;-1.652;2023-06-22T00:06:22;4.90;;;2.75;;
39948;SDS011;29070;48.102;-1.652;2023-06-22T00:11:22;4.70;;;2.57;;
39948;SDS011;29070;48.102;-1.652;2023-06-22T00:16:23;4.53;;;2.95;;
39948;SDS011;29070;48.102;-1.652;2023-06-22T00:21:23;8.10;;;2.77;;
39948;SDS011;29070;48.102;-1.652;2023-06-22T00:26:24;6.63;;;2.77;;
39948;SDS011;29070;48.102;-1.652;2023-06-22T00:31:24;5.32;;;2.75;;
39948;SDS011;29070;48.102;-1.652;2023-06-22T00:36:25;7.77;;;2.87;;
39948;SDS011;29070;48.102;-1.652;2023-06-22T00:41:25;6.43;;;3.10;;
39948;SDS011;29070;48.102;-1.652;2023-06-22T00:46:28;6.10;;;2.75;;
39948;SDS011;29070;48.102;-1.652;2023-06-22T00:51:29;7.10;;;2.90;;
39948;SDS011;29070;48.102;-1.652;2023-06-22T00:56:29;9.13;;;2.60;;
39948;SDS011;29070;48.102;-1.652;2023-06-22T01:01:30;9.93;;;2.83;;
39948;SDS011;29070;48.102;-1.652;2023-06-22T01:06:32;7.38;;;2.60;;
39948;SDS011;29070;48.102;-1.652;2023-06-22T01:11:39;4.20;;;2.45;;
39948;SDS011;29070;48.102;-1.652;2023-06-22T01:16:45;7.65;;;3.38;;
39948;SDS011;29070;48.102;-1.652;2023-06-22T01:21:48;6.32;;;2.90;;
39948;SDS011;29070;48.102;-1.652;2023-06-22T01:31:58;4.53;;;2.70;;
39948;SDS011;29070;48.102;-1.652;2023-06-22T01:37:00;5.47;;;2.65;;
39948;SDS011;29070;48.102;-1.652;2023-06-22T01:42:02;7.40;;;3.45;;
39948;SDS011;29070;48.102;-1.652;2023-06-22T01:47:03;7.07;;;2.90;;
39948;SDS011;29070;48.102;-1.652;2023-06-22T01:52:04;5.20;;;2.40;;
39948;SDS011;29070;48.102;-1.652;2023-06-22T01:57:06;8.05;;;2.75;;
39948;SDS011;29070;48.102;-1.652;2023-06-22T02:02:07;3.78;;;2.55;;
39948;SDS011;29070;48.102;-1.652;2023-06-22T02:07:11;4.55;;;2.63;;
39948;SDS011;29070;48.102;-1.652;2023-06-22T02:12:16;6.40;;;2.95;;
39948;SDS011;29070;48.102;-1.652;2023-06-22T02:17:21;6.13;;;2.42;;
39948;SDS011;29070;48.102;-1.652;2023-06-22T02:22:22;4.90;;;2.47;;
39948;SDS011;29070;48.102;-1.652;2023-06-22T02:27:23;5.60;;;2.10;;
39948;SDS011;29070;48.102;-1.652;2023-06-22T02:32:24;3.73;;;2.33;;
39948;SDS011;29070;48.102;-1.652;2023-06-22T02:37:24;6.40;;;2.37;;
39948;SDS011;29070;48.102;-1.652;2023-06-22T02:42:25;4.57;;;2.55;;
39948;SDS011;29070;48.102;-1.652;2023-06-22T02:47:25;5.53;;;2.83;;
39948;SDS011;29070;48.102;-1.652;2023-06-22T02:52:26;5.10;;;2.92;;
39948;SDS011;29070;48.102;-1.652;2023-06-22T02:57:26;5.47;;;2.37;;
39948;SDS011;29070;48.102;-1.652;2023-06-22T03:02:27;5.35;;;2.60;;
39948;SDS011;29070;48.102;-1.652;2023-06-22T03:07:27;3.92;;;2.22;;
39948;SDS011;29070;48.102;-1.652;2023-06-22T03:12:30;4.72;;;2.67;;
39948;SDS011;29070;48.102;-1.652;2023-06-22T03:17:30;4.13;;;2.33;;
39948;SDS011;29070;48.102;-1.652;2023-06-22T03:22:30;5.07;;;2.47;;
39948;SDS011;29070;48.102;-1.652;2023-06-22T03:27:31;5.90;;;2.40;;
39948;SDS011;29070;48.102;-1.652;2023-06-22T03:32:31;4.20;;;2.30;;
39948;SDS011;29070;48.102;-1.652;2023-06-22T03:37:31;8.23;;;2.27;;
39948;SDS011;29070;48.102;-1.652;2023-06-22T03:42:33;5.27;;;2.37;;
39948;SDS011;29070;48.102;-1.652;2023-06-22T03:47:34;6.95;;;3.25;;
39948;SDS011;29070;48.102;-1.652;2023-06-22T03:52:35;5.67;;;2.73;;
39948;SDS011;29070;48.102;-1.652;2023-06-22T03:57:35;5.33;;;2.57;;
39948;SDS011;29070;48.102;-1.652;2023-06-22T04:02:36;4.07;;;2.20;;
39948;SDS011;29070;48.102;-1.652;2023-06-22T04:07:36;9.80;;;3.10;;
39948;SDS011;29070;48.102;-1.652;2023-06-22T04:12:39;5.93;;;2.38;;
39948;SDS011;29070;48.102;-1.652;2023-06-22T04:17:40;4.93;;;2.33;;
39948;SDS011;29070;48.102;-1.652;2023-06-22T04:22:40;8.23;;;2.40;;
39948;SDS011;29070;48.102;-1.652;2023-06-22T04:27:40;4.67;;;2.17;;
39948;SDS011;29070;48.102;-1.652;2023-06-22T04:32:41;4.57;;;2.43;;
39948;SDS011;29070;48.102;-1.652;2023-06-22T04:37:41;2.93;;;1.97;;
39948;SDS011;29070;48.102;-1.652;2023-06-22T04:42:41;5.10;;;2.30;;
39948;SDS011;29070;48.102;-1.652;2023-06-22T04:47:52;7.18;;;2.90;;
39948;SDS011;29070;48.102;-1.652;2023-06-22T04:52:52;6.00;;;2.20;;
39948;SDS011;29070;48.102;-1.652;2023-06-22T04:57:52;5.00;;;2.40;;
39948;SDS011;29070;48.102;-1.652;2023-06-22T05:02:53;5.50;;;2.40;;
39948;SDS011;29070;48.102;-1.652;2023-06-22T05:07:53;6.13;;;2.37;;
39948;SDS011;29070;48.102;-1.652;2023-06-22T05:12:59;4.63;;;2.60;;
39948;SDS011;29070;48.102;-1.652;2023-06-22T05:18:00;8.37;;;2.57;;
39948;SDS011;29070;48.102;-1.652;2023-06-22T05:23:04;4.93;;;2.45;;
39948;SDS011;29070;48.102;-1.652;2023-06-22T05:28:04;6.13;;;2.67;;
39948;SDS011;29070;48.102;-1.652;2023-06-22T05:33:10;5.50;;;2.42;;
39948;SDS011;29070;48.102;-1.652;2023-06-22T05:38:11;5.33;;;2.47;;
39948;SDS011;29070;48.102;-1.652;2023-06-22T05:43:11;5.73;;;2.60;;
39948;SDS011;29070;48.102;-1.652;2023-06-22T05:48:11;6.47;;;2.63;;
39948;SDS011;29070;48.102;-1.652;2023-06-22T05:53:12;4.60;;;2.50;;
39948;SDS011;29070;48.102;-1.652;2023-06-22T05:58:12;7.60;;;2.33;;
39948;SDS011;29070;48.102;-1.652;2023-06-22T06:03:16;9.68;;;2.70;;
39948;SDS011;29070;48.102;-1.652;2023-06-22T06:08:17;8.02;;;2.10;;
39948;SDS011;29070;48.102;-1.652;2023-06-22T06:13:17;4.53;;;2.00;;
39948;SDS011;29070;48.102;-1.652;2023-06-22T06:18:17;4.90;;;2.23;;
39948;SDS011;29070;48.102;-1.652;2023-06-22T06:23:18;9.47;;;2.80;;
39948;SDS011;29070;48.102;-1.652;2023-06-22T06:28:18;3.97;;;2.20;;
39948;SDS011;29070;48.102;-1.652;2023-06-22T06:33:19;8.60;;;2.30;;
39948;SDS011;29070;48.102;-1.652;2023-06-22T06:38:20;3.47;;;2.47;;
39948;SDS011;29070;48.102;-1.652;2023-06-22T06:43:21;3.97;;;2.20;;
39948;SDS011;29070;48.102;-1.652;2023-06-22T06:48:22;4.90;;;2.10;;
39948;SDS011;29070;48.102;-1.652;2023-06-22T06:53:23;4.10;;;2.27;;
39948;SDS011;29070;48.102;-1.652;2023-06-22T06:58:23;5.20;;;1.93;;
39948;SDS011;29070;48.102;-1.652;2023-06-22T07:03:23;4.57;;;2.77;;
39948;SDS011;29070;48.102;-1.652;2023-06-22T07:08:24;3.77;;;2.30;;
39948;SDS011;29070;48.102;-1.652;2023-06-22T07:13:24;6.27;;;2.13;;
39948;SDS011;29070;48.102;-1.652;2023-06-22T07:18:24;4.37;;;2.53;;
39948;SDS011;29070;48.102;-1.652;2023-06-22T07:23:26;4.72;;;2.28;;
39948;SDS011;29070;48.102;-1.652;2023-06-22T07:28:26;6.20;;;2.60;;
39948;SDS011;29070;48.102;-1.652;2023-06-22T07:33:27;8.88;;;2.38;;
39948;SDS011;29070;48.102;-1.652;2023-06-22T07:38:27;9.50;;;2.23;;
39948;SDS011;29070;48.102;-1.652;2023-06-22T07:43:28;10.67;;;2.53;;
39948;SDS011;29070;48.102;-1.652;2023-06-22T07:48:30;5.20;;;2.50;;
39948;SDS011;29070;48.102;-1.652;2023-06-22T07:53:30;4.67;;;1.80;;
39948;SDS011;29070;48.102;-1.652;2023-06-22T07:58:30;6.27;;;2.13;;
39948;SDS011;29070;48.102;-1.652;2023-06-22T08:03:31;3.28;;;1.70;;
39948;SDS011;29070;48.102;-1.652;2023-06-22T08:08:32;4.05;;;2.00;;
39948;SDS011;29070;48.102;-1.652;2023-06-22T08:13:32;3.03;;;1.70;;
39948;SDS011;29070;48.102;-1.652;2023-06-22T08:18:32;4.00;;;2.10;;
39948;SDS011;29070;48.102;-1.652;2023-06-22T08:23:33;4.77;;;2.43;;
39948;SDS011;29070;48.102;-1.652;2023-06-22T08:28:33;4.07;;;1.90;;
39948;SDS011;29070;48.102;-1.652;2023-06-22T08:33:33;3.80;;;1.70;;
39948;SDS011;29070;48.102;-1.652;2023-06-22T08:38:34;4.97;;;1.93;;
39948;SDS011;29070;48.102;-1.652;2023-06-22T08:43:34;5.83;;;2.23;;
39948;SDS011;29070;48.102;-1.652;2023-06-22T08:48:34;4.03;;;1.73;;
39948;SDS011;29070;48.102;-1.652;2023-06-22T08:53:35;4.30;;;2.03;;
39948;SDS011;29070;48.102;-1.652;2023-06-22T08:58:36;3.05;;;1.50;;
39948;SDS011;29070;48.102;-1.652;2023-06-22T09:03:37;8.70;;;1.87;;
39948;SDS011;29070;48.102;-1.652;2023-06-22T09:08:37;5.97;;;1.90;;
39948;SDS011;29070;48.102;-1.652;2023-06-22T09:13:38;5.50;;;1.60;;
39948;SDS011;29070;48.102;-1.652;2023-06-22T09:18:38;3.07;;;1.83;;
39948;SDS011;29070;48.102;-1.652;2023-06-22T09:23:38;2.83;;;1.80;;
39948;SDS011;29070;48.102;-1.652;2023-06-22T09:28:39;4.07;;;1.70;;
39948;SDS011;29070;48.102;-1.652;2023-06-22T09:33:39;3.70;;;1.67;;
39948;SDS011;29070;48.102;-1.652;2023-06-22T09:38:40;5.28;;;1.70;;
39948;SDS011;29070;48.102;-1.652;2023-06-22T09:43:40;3.87;;;1.67;;
39948;SDS011;29070;48.102;-1.652;2023-06-22T09:48:41;3.53;;;1.53;;
39948;SDS011;29070;48.102;-1.652;2023-06-22T09:53:41;3.53;;;1.70;;
39948;SDS011;29070;48.102;-1.652;2023-06-22T09:58:42;4.57;;;1.70;;
39948;SDS011;29070;48.102;-1.652;2023-06-22T10:03:43;6.93;;;1.88;;
39948;SDS011;29070;48.102;-1.652;2023-06-22T10:08:43;6.30;;;1.50;;
39948;SDS011;29070;48.102;-1.652;2023-06-22T10:13:44;2.80;;;1.37;;
39948;SDS011;29070;48.102;-1.652;2023-06-22T10:18:44;6.17;;;1.53;;
39948;SDS011;29070;48.102;-1.652;2023-06-22T10:23:44;2.43;;;1.53;;
39948;SDS011;29070;48.102;-1.652;2023-06-22T10:28:44;3.87;;;1.80;;
39948;SDS011;29070;48.102;-1.652;2023-06-22T10:33:45;4.07;;;1.73;;
39948;SDS011;29070;48.102;-1.652;2023-06-22T10:38:45;5.57;;;2.10;;
39948;SDS011;29070;48.102;-1.652;2023-06-22T10:43:47;7.45;;;1.85;;
39948;SDS011;29070;48.102;-1.652;2023-06-22T10:48:47;3.07;;;1.67;;
39948;SDS011;29070;48.102;-1.652;2023-06-22T10:53:48;4.53;;;1.73;;
39948;SDS011;29070;48.102;-1.652;2023-06-22T10:58:48;4.03;;;1.70;;
39948;SDS011;29070;48.102;-1.652;2023-06-22T11:03:48;2.83;;;1.70;;
39948;SDS011;29070;48.102;-1.652;2023-06-22T11:08:49;5.00;;;2.10;;
39948;SDS011;29070;48.102;-1.652;2023-06-22T11:13:49;3.78;;;1.50;;
39948;SDS011;29070;48.102;-1.652;2023-06-22T11:18:49;3.00;;;1.53;;
39948;SDS011;29070;48.102;-1.652;2023-06-22T11:23:50;2.70;;;1.43;;
39948;SDS011;29070;48.102;-1.652;2023-06-22T11:28:50;5.00;;;1.90;;
39948;SDS011;29070;48.102;-1.652;2023-06-22T11:33:50;3.23;;;1.60;;
39948;SDS011;29070;48.102;-1.652;2023-06-22T11:38:51;4.70;;;2.17;;
39948;SDS011;29070;48.102;-1.652;2023-06-22T11:43:52;5.32;;;1.70;;
39948;SDS011;29070;48.102;-1.652;2023-06-22T11:48:52;5.27;;;2.03;;
39948;SDS011;29070;48.102;-1.652;2023-06-22T11:53:53;6.50;;;1.90;;
39948;SDS011;29070;48.102;-1.652;2023-06-22T11:58:53;2.38;;;1.70;;
39948;SDS011;29070;48.102;-1.652;2023-06-22T12:03:54;4.18;;;1.80;;
39948;SDS011;29070;48.102;-1.652;2023-06-22T12:08:54;7.07;;;1.97;;
39948;SDS011;29070;48.102;-1.652;2023-06-22T12:13:55;3.67;;;1.70;;
39948;SDS011;29070;48.102;-1.652;2023-06-22T12:18:55;5.70;;;1.90;;
39948;SDS011;29070;48.102;-1.652;2023-06-22T12:23:55;4.43;;;1.63;;
39948;SDS011;29070;48.102;-1.652;2023-06-22T12:28:56;2.00;;;1.60;;
39948;SDS011;29070;48.102;-1.652;2023-06-22T12:33:56;3.03;;;1.93;;
39948;SDS011;29070;48.102;-1.652;2023-06-22T12:38:56;3.37;;;1.80;;
39948;SDS011;29070;48.102;-1.652;2023-06-22T12:43:57;4.47;;;2.30;;
39948;SDS011;29070;48.102;-1.652;2023-06-22T12:48:57;3.47;;;2.03;;
39948;SDS011;29070;48.102;-1.652;2023-06-22T12:53:57;6.15;;;2.40;;
39948;SDS011;29070;48.102;-1.652;2023-06-22T12:58:58;4.03;;;2.33;;
39948;SDS011;29070;48.102;-1.652;2023-06-22T13:04:01;4.18;;;2.40;;
39948;SDS011;29070;48.102;-1.652;2023-06-22T13:09:01;5.57;;;2.20;;
39948;SDS011;29070;48.102;-1.652;2023-06-22T13:14:05;4.78;;;2.10;;
39948;SDS011;29070;48.102;-1.652;2023-06-22T13:19:05;3.30;;;2.03;;
39948;SDS011;29070;48.102;-1.652;2023-06-22T13:24:06;3.73;;;1.87;;
39948;SDS011;29070;48.102;-1.652;2023-06-22T13:29:06;4.30;;;2.20;;
39948;SDS011;29070;48.102;-1.652;2023-06-22T13:34:06;5.13;;;1.77;;
39948;SDS011;29070;48.102;-1.652;2023-06-22T13:39:07;3.33;;;2.13;;
39948;SDS011;29070;48.102;-1.652;2023-06-22T13:44:07;4.77;;;1.63;;
39948;SDS011;29070;48.102;-1.652;2023-06-22T13:49:07;2.80;;;1.93;;
39948;SDS011;29070;48.102;-1.652;2023-06-22T13:54:08;2.60;;;1.80;;
39948;SDS011;29070;48.102;-1.652;2023-06-22T13:59:08;2.00;;;1.17;;
39948;SDS011;29070;48.102;-1.652;2023-06-22T14:04:09;2.60;;;1.50;;
39948;SDS011;29070;48.102;-1.652;2023-06-22T14:09:10;2.17;;;1.25;;
39948;SDS011;29070;48.102;-1.652;2023-06-22T14:14:10;7.53;;;1.60;;
39948;SDS011;29070;48.102;-1.652;2023-06-22T14:19:11;5.17;;;1.50;;
39948;SDS011;29070;48.102;-1.652;2023-06-22T14:24:11;3.22;;;1.38;;
39948;SDS011;29070;48.102;-1.652;2023-06-22T14:29:11;3.07;;;1.37;;
39948;SDS011;29070;48.102;-1.652;2023-06-22T14:34:12;5.47;;;1.20;;
39948;SDS011;29070;48.102;-1.652;2023-06-22T14:39:12;2.67;;;1.30;;
39948;SDS011;29070;48.102;-1.652;2023-06-22T14:44:12;2.40;;;1.60;;
39948;SDS011;29070;48.102;-1.652;2023-06-22T14:49:13;2.60;;;1.60;;
39948;SDS011;29070;48.102;-1.652;2023-06-22T14:54:13;3.13;;;1.30;;
39948;SDS011;29070;48.102;-1.652;2023-06-22T14:59:14;4.82;;;1.50;;
39948;SDS011;29070;48.102;-1.652;2023-06-22T15:04:14;3.90;;;1.40;;
39948;SDS011;29070;48.102;-1.652;2023-06-22T15:09:15;1.75;;;1.15;;
39948;SDS011;29070;48.102;-1.652;2023-06-22T15:14:15;2.13;;;1.30;;
39948;SDS011;29070;48.102;-1.652;2023-06-22T15:19:16;3.00;;;1.50;;
39948;SDS011;29070;48.102;-1.652;2023-06-22T15:24:16;2.70;;;1.10;;
39948;SDS011;29070;48.102;-1.652;2023-06-22T15:29:16;3.97;;;1.20;;
39948;SDS011;29070;48.102;-1.652;2023-06-22T15:34:17;2.60;;;1.10;;
39948;SDS011;29070;48.102;-1.652;2023-06-22T15:39:17;2.22;;;0.93;;
39948;SDS011;29070;48.102;-1.652;2023-06-22T15:44:18;3.90;;;1.57;;
39948;SDS011;29070;48.102;-1.652;2023-06-22T15:49:18;2.13;;;1.20;;
39948;SDS011;29070;48.102;-1.652;2023-06-22T15:54:19;1.97;;;1.17;;
39948;SDS011;29070;48.102;-1.652;2023-06-22T15:59:19;3.90;;;1.10;;
39948;SDS011;29070;48.102;-1.652;2023-06-22T16:04:20;1.83;;;1.20;;
39948;SDS011;29070;48.102;-1.652;2023-06-22T16:09:20;1.60;;;0.90;;
39948;SDS011;29070;48.102;-1.652;2023-06-22T16:14:20;8.27;;;1.37;;
39948;SDS011;29070;48.102;-1.652;2023-06-22T16:19:21;2.97;;;1.23;;
39948;SDS011;29070;48.102;-1.652;2023-06-22T16:24:21;1.83;;;1.30;;
39948;SDS011;29070;48.102;-1.652;2023-06-22T16:29:22;2.30;;;1.60;;
39948;SDS011;29070;48.102;-1.652;2023-06-22T16:34:22;3.60;;;1.47;;
39948;SDS011;29070;48.102;-1.652;2023-06-22T16:39:23;2.13;;;1.10;;
39948;SDS011;29070;48.102;-1.652;2023-06-22T16:44:23;5.13;;;1.60;;
39948;SDS011;29070;48.102;-1.652;2023-06-22T16:49:23;3.17;;;1.30;;
39948;SDS011;29070;48.102;-1.652;2023-06-22T16:54:24;1.80;;;1.17;;
39948;SDS011;29070;48.102;-1.652;2023-06-22T16:59:24;3.22;;;1.40;;
39948;SDS011;29070;48.102;-1.652;2023-06-22T17:04:25;3.10;;;1.80;;
39948;SDS011;29070;48.102;-1.652;2023-06-22T17:09:27;3.03;;;1.20;;
39948;SDS011;29070;48.102;-1.652;2023-06-22T17:14:29;3.65;;;1.58;;
39948;SDS011;29070;48.102;-1.652;2023-06-22T17:19:29;4.80;;;1.40;;
39948;SDS011;29070;48.102;-1.652;2023-06-22T17:24:29;3.07;;;1.50;;
39948;SDS011;29070;48.102;-1.652;2023-06-22T17:29:30;2.63;;;1.50;;
39948;SDS011;29070;48.102;-1.652;2023-06-22T17:34:33;1.88;;;1.45;;
39948;SDS011;29070;48.102;-1.652;2023-06-22T17:39:33;2.63;;;1.80;;
39948;SDS011;29070;48.102;-1.652;2023-06-22T17:44:33;1.73;;;1.30;;
39948;SDS011;29070;48.102;-1.652;2023-06-22T17:49:35;4.18;;;2.05;;
39948;SDS011;29070;48.102;-1.652;2023-06-22T17:54:36;3.35;;;1.52;;
39948;SDS011;29070;48.102;-1.652;2023-06-22T17:59:38;1.95;;;1.10;;
39948;SDS011;29070;48.102;-1.652;2023-06-22T18:04:39;3.10;;;1.47;;
39948;SDS011;29070;48.102;-1.652;2023-06-22T18:09:40;3.80;;;1.75;;
39948;SDS011;29070;48.102;-1.652;2023-06-22T18:14:41;4.30;;;1.70;;
39948;SDS011;29070;48.102;-1.652;2023-06-22T18:19:42;2.03;;;1.35;;
39948;SDS011;29070;48.102;-1.652;2023-06-22T18:24:44;2.85;;;1.40;;
39948;SDS011;29070;48.102;-1.652;2023-06-22T18:29:47;3.00;;;1.23;;
39948;SDS011;29070;48.102;-1.652;2023-06-22T18:34:49;4.47;;;1.50;;
39948;SDS011;29070;48.102;-1.652;2023-06-22T18:39:54;5.45;;;1.60;;
39948;SDS011;29070;48.102;-1.652;2023-06-22T18:44:56;3.40;;;1.52;;
39948;SDS011;29070;48.102;-1.652;2023-06-22T18:50:04;3.20;;;1.20;;
39948;SDS011;29070;48.102;-1.652;2023-06-22T18:55:06;2.97;;;1.45;;
39948;SDS011;29070;48.102;-1.652;2023-06-22T19:00:12;3.13;;;1.55;;
39948;SDS011;29070;48.102;-1.652;2023-06-22T19:05:15;3.35;;;1.55;;
39948;SDS011;29070;48.102;-1.652;2023-06-22T19:15:21;3.78;;;1.38;;
39948;SDS011;29070;48.102;-1.652;2023-06-22T19:20:32;2.22;;;1.25;;
39948;SDS011;29070;48.102;-1.652;2023-06-22T19:25:35;2.45;;;1.40;;
39948;SDS011;29070;48.102;-1.652;2023-06-22T19:30:36;2.80;;;1.40;;
39948;SDS011;29070;48.102;-1.652;2023-06-22T19:35:37;5.07;;;1.25;;
39948;SDS011;29070;48.102;-1.652;2023-06-22T19:40:38;5.22;;;1.80;;
39948;SDS011;29070;48.102;-1.652;2023-06-22T19:45:39;2.67;;;1.35;;
39948;SDS011;29070;48.102;-1.652;2023-06-22T19:50:41;2.42;;;1.45;;
39948;SDS011;29070;48.102;-1.652;2023-06-22T19:55:43;1.70;;;1.20;;
39948;SDS011;29070;48.102;-1.652;2023-06-22T20:00:46;2.05;;;1.63;;
39948;SDS011;29070;48.102;-1.652;2023-06-22T20:05:53;4.00;;;2.20;;
39948;SDS011;29070;48.102;-1.652;2023-06-22T20:10:53;4.15;;;2.00;;
39948;SDS011;29070;48.102;-1.652;2023-06-22T20:16:07;2.38;;;1.60;;
39948;SDS011;29070;48.102;-1.652;2023-06-22T20:21:11;4.28;;;1.60;;
39948;SDS011;29070;48.102;-1.652;2023-06-22T20:26:12;4.00;;;1.90;;
39948;SDS011;29070;48.102;-1.652;2023-06-22T20:31:16;3.35;;;1.55;;
39948;SDS011;29070;48.102;-1.652;2023-06-22T20:36:17;5.43;;;1.87;;
39948;SDS011;29070;48.102;-1.652;2023-06-22T20:41:18;2.42;;;1.73;;
39948;SDS011;29070;48.102;-1.652;2023-06-22T20:46:18;5.47;;;1.90;;
39948;SDS011;29070;48.102;-1.652;2023-06-22T20:51:18;4.77;;;1.77;;
39948;SDS011;29070;48.102;-1.652;2023-06-22T20:56:19;4.10;;;2.13;;
39948;SDS011;29070;48.102;-1.652;2023-06-22T21:01:19;6.07;;;2.00;;
39948;SDS011;29070;48.102;-1.652;2023-06-22T21:06:19;3.45;;;1.95;;
39948;SDS011;29070;48.102;-1.652;2023-06-22T21:11:20;3.17;;;1.70;;
39948;SDS011;29070;48.102;-1.652;2023-06-22T21:16:20;2.90;;;2.13;;
39948;SDS011;29070;48.102;-1.652;2023-06-22T21:21:21;4.00;;;1.70;;
39948;SDS011;29070;48.102;-1.652;2023-06-22T21:26:21;4.37;;;2.13;;
39948;SDS011;29070;48.102;-1.652;2023-06-22T21:31:21;3.73;;;2.07;;
39948;SDS011;29070;48.102;-1.652;2023-06-22T21:36:22;3.07;;;2.20;;
39948;SDS011;29070;48.102;-1.652;2023-06-22T21:41:22;5.97;;;2.13;;
39948;SDS011;29070;48.102;-1.652;2023-06-22T21:46:22;2.87;;;1.90;;
39948;SDS011;29070;48.102;-1.652;2023-06-22T21:51:23;4.70;;;2.13;;
39948;SDS011;29070;48.102;-1.652;2023-06-22T21:56:23;4.30;;;2.53;;
39948;SDS011;29070;48.102;-1.652;2023-06-22T22:01:24;5.27;;;2.00;;
39948;SDS011;29070;48.102;-1.652;2023-06-22T22:06:24;3.00;;;1.70;;
39948;SDS011;29070;48.102;-1.652;2023-06-22T22:11:26;4.53;;;2.10;;
39948;SDS011;29070;48.102;-1.652;2023-06-22T22:16:27;3.28;;;2.20;;
39948;SDS011;29070;48.102;-1.652;2023-06-22T22:21:27;4.22;;;1.80;;
39948;SDS011;29070;48.102;-1.652;2023-06-22T22:26:28;3.13;;;1.95;;
39948;SDS011;29070;48.102;-1.652;2023-06-22T22:31:28;5.45;;;2.10;;
39948;SDS011;29070;48.102;-1.652;2023-06-22T22:36:29;6.90;;;2.40;;
39948;SDS011;29070;48.102;-1.652;2023-06-22T22:41:29;5.25;;;2.00;;
39948;SDS011;29070;48.102;-1.652;2023-06-22T22:46:30;5.10;;;2.38;;
39948;SDS011;29070;48.102;-1.652;2023-06-22T22:51:31;4.15;;;1.95;;
39948;SDS011;29070;48.102;-1.652;2023-06-22T22:56:31;4.37;;;2.33;;
39948;SDS011;29070;48.102;-1.652;2023-06-22T23:01:31;3.20;;;1.87;;
39948;SDS011;29070;48.102;-1.652;2023-06-22T23:06:33;4.22;;;2.13;;
39948;SDS011;29070;48.102;-1.652;2023-06-22T23:11:33;4.50;;;2.20;;
39948;SDS011;29070;48.102;-1.652;2023-06-22T23:16:37;4.03;;;2.42;;
39948;SDS011;29070;48.102;-1.652;2023-06-22T23:21:38;6.13;;;2.65;;
39948;SDS011;29070;48.102;-1.652;2023-06-22T23:26:39;5.13;;;3.20;;
39948;SDS011;29070;48.102;-1.652;2023-06-22T23:31:39;7.37;;;3.13;;
39948;SDS011;29070;48.102;-1.652;2023-06-22T23:36:39;4.67;;;2.93;;
39948;SDS011;29070;48.102;-1.652;2023-06-22T23:41:40;7.80;;;3.60;;
39948;SDS011;29070;48.102;-1.652;2023-06-22T23:46:40;6.10;;;3.53;;
39948;SDS011;29070;48.102;-1.652;2023-06-22T23:51:40;6.03;;;3.67;;
39948;SDS011;29070;48.102;-1.652;2023-06-22T23:56:41;9.47;;;4.30;;
